createdAt,value
2023-03-29T00:00:31.942Z,95.42
2023-03-29T00:01:35.014Z,95.42
2023-03-29T00:02:31.950Z,95.31
2023-03-29T00:03:31.986Z,94.69
2023-03-29T00:04:31.895Z,94.48
2023-03-29T00:05:31.808Z,93.87
2023-03-29T00:06:31.846Z,93.62
2023-03-29T00:07:32.163Z,94.03
2023-03-29T00:08:31.804Z,94.28
2023-03-29T00:09:31.791Z,94.34
2023-03-29T00:10:31.755Z,95.00
2023-03-29T00:11:31.772Z,94.13
2023-03-29T00:12:31.744Z,93.93
2023-03-29T00:13:31.728Z,93.72
2023-03-29T00:14:31.731Z,93.20
2023-03-29T00:15:31.681Z,93.62
2023-03-29T00:16:31.773Z,94.03
2023-03-29T00:17:31.707Z,94.34
2023-03-29T00:18:31.657Z,93.51
2023-03-29T00:19:31.633Z,94.03
2023-03-29T00:20:31.638Z,93.93
2023-03-29T00:21:31.646Z,93.10
2023-03-29T00:22:31.693Z,92.89
2023-03-29T00:23:31.656Z,92.79
2023-03-29T00:24:31.577Z,92.68
2023-03-29T00:25:31.614Z,93.51
2023-03-29T00:26:31.585Z,92.68
2023-03-29T00:27:31.651Z,93.16
2023-03-29T00:28:31.636Z,92.79
2023-03-29T00:29:31.589Z,92.68
2023-03-29T00:30:31.586Z,92.27
2023-03-29T00:31:31.570Z,92.58
2023-03-29T00:32:31.595Z,92.68
2023-03-29T00:33:31.523Z,92.23
2023-03-29T00:34:31.486Z,92.68
2023-03-29T00:35:31.572Z,92.54
2023-03-29T00:36:31.501Z,92.74
2023-03-29T00:37:31.452Z,93.10
2023-03-29T00:38:31.493Z,92.48
2023-03-29T00:39:31.411Z,92.44
2023-03-29T00:40:31.483Z,92.33
2023-03-29T00:41:31.426Z,92.23
2023-03-29T00:42:31.410Z,92.07
2023-03-29T00:43:31.380Z,92.33
2023-03-29T00:44:31.364Z,92.38
2023-03-29T00:45:31.326Z,92.33
2023-03-29T00:46:31.476Z,92.54
2023-03-29T00:47:31.367Z,92.38
2023-03-29T00:48:31.374Z,92.07
2023-03-29T00:49:31.297Z,91.92
2023-03-29T00:50:31.318Z,92.44
2023-03-29T00:51:31.268Z,92.33
2023-03-29T00:52:31.253Z,91.40
2023-03-29T00:53:31.277Z,91.71
2023-03-29T00:54:31.253Z,92.33
2023-03-29T00:55:31.258Z,91.71
2023-03-29T00:56:31.196Z,92.02
2023-03-29T00:57:31.218Z,91.82
2023-03-29T00:58:31.171Z,92.44
2023-03-29T00:59:31.320Z,92.54
2023-03-29T01:00:31.204Z,92.07
2023-03-29T01:01:31.236Z,92.13
2023-03-29T01:02:31.210Z,92.13
2023-03-29T01:03:31.187Z,91.71
2023-03-29T01:04:31.142Z,91.40
2023-03-29T01:05:31.145Z,91.50
2023-03-29T01:06:31.164Z,91.71
2023-03-29T01:07:31.081Z,90.99
2023-03-29T01:08:31.066Z,91.30
2023-03-29T01:09:31.088Z,91.50
2023-03-29T01:10:31.066Z,91.40
2023-03-29T01:11:31.153Z,91.40
2023-03-29T01:12:31.061Z,91.20
2023-03-29T01:13:31.031Z,91.30
2023-03-29T01:14:31.043Z,91.71
2023-03-29T01:15:30.992Z,91.40
2023-03-29T01:16:30.989Z,90.89
2023-03-29T01:17:31.029Z,90.99
2023-03-29T01:18:30.965Z,90.99
2023-03-29T01:19:30.952Z,90.47
2023-03-29T01:20:30.917Z,90.89
2023-03-29T01:21:30.929Z,90.78
2023-03-29T01:22:30.895Z,90.89
2023-03-29T01:23:30.906Z,90.68
2023-03-29T01:24:30.870Z,90.26
2023-03-29T01:25:30.872Z,90.68
2023-03-29T01:26:30.875Z,90.37
2023-03-29T01:27:30.906Z,90.37
2023-03-29T01:28:30.831Z,90.16
2023-03-29T01:29:30.810Z,90.58
2023-03-29T01:30:30.847Z,90.78
2023-03-29T01:31:30.805Z,90.58
2023-03-29T01:32:30.837Z,90.26
2023-03-29T01:33:30.797Z,90.37
2023-03-29T01:34:30.792Z,90.26
2023-03-29T01:35:30.787Z,90.47
2023-03-29T01:36:30.735Z,90.16
2023-03-29T01:37:30.710Z,90.06
2023-03-29T01:38:30.775Z,90.58
2023-03-29T01:39:30.752Z,90.26
2023-03-29T01:40:30.714Z,90.47
2023-03-29T01:41:30.692Z,90.58
2023-03-29T01:42:30.657Z,90.58
2023-03-29T01:43:30.723Z,90.37
2023-03-29T01:44:30.684Z,90.37
2023-03-29T01:45:30.641Z,89.95
2023-03-29T01:46:30.678Z,90.26
2023-03-29T01:47:30.650Z,90.16
2023-03-29T01:48:30.653Z,89.86
2023-03-29T01:49:30.570Z,89.44
2023-03-29T01:50:30.542Z,89.75
2023-03-29T01:51:30.551Z,89.61
2023-03-29T01:52:30.534Z,89.54
2023-03-29T01:53:30.656Z,89.81
2023-03-29T01:54:30.502Z,89.44
2023-03-29T01:55:30.520Z,89.75
2023-03-29T01:56:30.490Z,89.50
2023-03-29T01:57:38.000Z,89.29
2023-03-29T01:58:30.446Z,89.50
2023-03-29T01:59:30.485Z,89.71
2023-03-29T02:00:30.428Z,89.71
2023-03-29T02:01:30.494Z,89.50
2023-03-29T02:02:30.505Z,89.40
2023-03-29T02:03:30.560Z,89.19
2023-03-29T02:04:30.454Z,89.29
2023-03-29T02:05:30.394Z,89.40
2023-03-29T02:06:30.425Z,89.61
2023-03-29T02:07:30.435Z,90.02
2023-03-29T02:08:30.368Z,89.50
2023-03-29T02:09:30.379Z,89.19
2023-03-29T02:10:30.427Z,88.78
2023-03-29T02:11:30.314Z,89.19
2023-03-29T02:12:30.375Z,89.29
2023-03-29T02:13:30.335Z,89.19
2023-03-29T02:14:30.323Z,89.19
2023-03-29T02:15:30.339Z,88.89
2023-03-29T02:16:30.285Z,89.40
2023-03-29T02:17:30.340Z,89.40
2023-03-29T02:18:30.223Z,88.89
2023-03-29T02:19:30.258Z,88.98
2023-03-29T02:20:30.253Z,88.78
2023-03-29T02:21:30.256Z,88.89
2023-03-29T02:22:30.179Z,88.68
2023-03-29T02:23:30.198Z,88.37
2023-03-29T02:24:30.190Z,88.37
2023-03-29T02:25:30.189Z,88.84
2023-03-29T02:26:30.125Z,88.57
2023-03-29T02:27:31.198Z,88.22
2023-03-29T02:28:30.093Z,88.68
2023-03-29T02:29:30.100Z,89.09
2023-03-29T02:30:30.093Z,88.89
2023-03-29T02:31:30.108Z,88.98
2023-03-29T02:32:30.115Z,88.89
2023-03-29T02:33:30.054Z,88.89
2023-03-29T02:34:30.092Z,88.47
2023-03-29T02:35:30.044Z,88.02
2023-03-29T02:36:29.997Z,87.71
2023-03-29T02:37:30.021Z,88.12
2023-03-29T02:38:30.042Z,87.92
2023-03-29T02:39:29.970Z,87.92
2023-03-29T02:40:29.957Z,87.50
2023-03-29T02:41:29.948Z,87.50
2023-03-29T02:42:29.988Z,87.71
2023-03-29T02:43:29.963Z,88.02
2023-03-29T02:44:29.909Z,88.12
2023-03-29T02:45:29.939Z,88.22
2023-03-29T02:46:29.929Z,88.12
2023-03-29T02:47:29.998Z,88.22
2023-03-29T02:48:29.882Z,88.32
2023-03-29T02:49:29.848Z,88.32
2023-03-29T02:50:29.937Z,88.12
2023-03-29T02:51:29.917Z,88.53
2023-03-29T02:52:29.911Z,88.64
2023-03-29T02:53:29.819Z,88.22
2023-03-29T02:54:36.757Z,87.92
2023-03-29T02:55:29.782Z,88.53
2023-03-29T02:56:29.827Z,88.32
2023-03-29T02:57:29.784Z,88.43
2023-03-29T02:58:29.793Z,88.32
2023-03-29T02:59:29.780Z,88.43
2023-03-29T03:00:29.729Z,88.53
2023-03-29T03:01:29.818Z,88.12
2023-03-29T03:02:29.855Z,87.71
2023-03-29T03:03:29.902Z,87.81
2023-03-29T03:04:29.700Z,88.22
2023-03-29T03:05:29.667Z,88.53
2023-03-29T03:06:29.705Z,88.74
2023-03-29T03:07:29.670Z,88.43
2023-03-29T03:08:29.671Z,88.22
2023-03-29T03:09:29.638Z,88.12
2023-03-29T03:10:29.599Z,88.12
2023-03-29T03:11:29.582Z,87.81
2023-03-29T03:12:29.657Z,88.12
2023-03-29T03:13:29.602Z,88.02
2023-03-29T03:14:29.544Z,87.60
2023-03-29T03:15:29.557Z,87.56
2023-03-29T03:16:29.551Z,87.66
2023-03-29T03:17:29.561Z,87.56
2023-03-29T03:18:29.541Z,87.66
2023-03-29T03:19:29.572Z,87.56
2023-03-29T03:20:29.479Z,87.87
2023-03-29T03:21:29.530Z,88.08
2023-03-29T03:22:29.437Z,87.98
2023-03-29T03:23:29.592Z,88.18
2023-03-29T03:24:29.450Z,87.66
2023-03-29T03:25:29.461Z,87.66
2023-03-29T03:26:29.420Z,87.87
2023-03-29T03:27:29.494Z,87.77
2023-03-29T03:28:29.420Z,87.77
2023-03-29T03:29:29.464Z,87.87
2023-03-29T03:30:29.431Z,88.08
2023-03-29T03:31:29.413Z,88.39
2023-03-29T03:32:29.425Z,88.59
2023-03-29T03:33:29.363Z,88.70
2023-03-29T03:34:29.300Z,89.01
2023-03-29T03:35:29.381Z,89.11
2023-03-29T03:36:29.299Z,89.32
2023-03-29T03:37:29.324Z,89.62
2023-03-29T03:38:29.258Z,90.14
2023-03-29T03:39:29.317Z,89.73
2023-03-29T03:40:29.271Z,90.25
2023-03-29T03:41:29.241Z,90.66
2023-03-29T03:42:29.213Z,90.76
2023-03-29T03:43:29.256Z,90.97
2023-03-29T03:44:29.249Z,91.17
2023-03-29T03:45:29.241Z,91.48
2023-03-29T03:46:29.783Z,91.58
2023-03-29T03:47:29.219Z,91.58
2023-03-29T03:48:29.153Z,91.79
2023-03-29T03:49:29.222Z,92.00
2023-03-29T03:50:29.092Z,92.10
2023-03-29T03:51:29.160Z,92.00
2023-03-29T03:52:29.105Z,92.00
2023-03-29T03:53:29.169Z,92.00
2023-03-29T03:54:29.077Z,92.21
2023-03-29T03:55:29.080Z,92.10
2023-03-29T03:56:29.130Z,92.21
2023-03-29T03:57:29.126Z,92.31
2023-03-29T03:58:29.014Z,92.21
2023-03-29T03:59:29.079Z,92.31
2023-03-29T04:00:29.019Z,92.21
2023-03-29T04:01:28.986Z,92.21
2023-03-29T04:02:29.080Z,92.31
2023-03-29T04:03:29.039Z,92.00
2023-03-29T04:04:28.996Z,92.10
2023-03-29T04:05:28.965Z,92.21
2023-03-29T04:06:29.002Z,92.10
2023-03-29T04:07:28.972Z,92.41
2023-03-29T04:08:28.882Z,92.41
2023-03-29T04:09:28.919Z,92.72
2023-03-29T04:10:28.949Z,93.24
2023-03-29T04:11:28.900Z,93.24
2023-03-29T04:12:28.894Z,94.17
2023-03-29T04:13:28.840Z,94.52
2023-03-29T04:14:28.886Z,94.62
2023-03-29T04:15:28.858Z,94.62
2023-03-29T04:16:28.897Z,95.14
2023-03-29T04:17:28.921Z,95.45
2023-03-29T04:18:28.868Z,95.76
2023-03-29T04:19:28.790Z,96.06
2023-03-29T04:20:28.764Z,96.31
2023-03-29T04:21:28.732Z,96.52
2023-03-29T04:22:28.764Z,96.52
2023-03-29T04:23:28.744Z,96.73
2023-03-29T04:24:28.712Z,96.83
2023-03-29T04:25:28.765Z,96.94
2023-03-29T04:26:28.788Z,96.62
2023-03-29T04:27:28.663Z,96.73
2023-03-29T04:28:28.721Z,96.83
2023-03-29T04:29:28.684Z,96.73
2023-03-29T04:30:28.657Z,96.62
2023-03-29T04:31:28.663Z,96.99
2023-03-29T04:32:28.617Z,97.25
2023-03-29T04:33:28.636Z,96.94
2023-03-29T04:34:28.610Z,95.90
2023-03-29T04:35:28.642Z,96.01
2023-03-29T04:36:28.569Z,95.96
2023-03-29T04:37:28.666Z,95.55
2023-03-29T04:38:28.578Z,95.14
2023-03-29T04:39:28.540Z,95.03
2023-03-29T04:40:28.552Z,95.14
2023-03-29T04:41:28.485Z,95.14
2023-03-29T04:42:28.600Z,94.93
2023-03-29T04:43:28.515Z,95.24
2023-03-29T04:44:28.513Z,95.34
2023-03-29T04:45:28.566Z,95.76
2023-03-29T04:46:28.609Z,95.96
2023-03-29T04:47:28.488Z,96.17
2023-03-29T04:48:28.467Z,96.48
2023-03-29T04:49:28.432Z,96.79
2023-03-29T04:50:28.402Z,97.20
2023-03-29T04:51:28.362Z,97.41
2023-03-29T04:52:28.398Z,97.61
2023-03-29T04:53:28.364Z,97.92
2023-03-29T04:54:28.377Z,98.28
2023-03-29T04:55:28.360Z,98.49
2023-03-29T04:56:28.303Z,99.00
2023-03-29T04:57:28.553Z,99.31
2023-03-29T04:58:32.203Z,99.52
2023-03-29T04:59:28.279Z,99.72
2023-03-29T05:00:28.467Z,99.99
2023-03-29T05:01:28.281Z,99.99
2023-03-29T05:02:28.304Z,99.99
2023-03-29T05:03:28.272Z,99.99
2023-03-29T05:04:28.230Z,99.99
2023-03-29T05:05:28.225Z,99.99
2023-03-29T05:06:28.244Z,99.99
2023-03-29T05:07:28.260Z,99.99
2023-03-29T05:08:28.180Z,99.99
2023-03-29T05:09:28.317Z,99.99
2023-03-29T05:10:28.259Z,99.99
2023-03-29T05:11:28.170Z,99.99
2023-03-29T05:12:28.123Z,99.99
2023-03-29T05:13:28.126Z,99.99
2023-03-29T05:14:28.209Z,99.99
2023-03-29T05:15:28.109Z,99.99
2023-03-29T05:16:28.259Z,99.99
2023-03-29T05:17:28.321Z,99.99
2023-03-29T05:18:28.129Z,99.99
2023-03-29T05:19:28.109Z,99.99
2023-03-29T05:20:28.174Z,99.99
2023-03-29T05:21:28.035Z,99.99
2023-03-29T05:22:28.227Z,99.99
2023-03-29T05:23:27.998Z,99.99
2023-03-29T05:24:27.988Z,99.99
2023-03-29T05:25:28.090Z,99.99
2023-03-29T05:26:28.043Z,99.99
2023-03-29T05:27:27.980Z,99.99
2023-03-29T05:28:28.009Z,99.99
2023-03-29T05:29:27.948Z,99.99
2023-03-29T05:30:28.042Z,99.99
2023-03-29T05:31:28.041Z,99.99
2023-03-29T05:32:27.948Z,99.99
2023-03-29T05:33:27.879Z,99.99
2023-03-29T05:34:27.885Z,99.99
2023-03-29T05:35:27.880Z,99.99
2023-03-29T05:36:27.831Z,99.99
2023-03-29T05:37:27.951Z,99.99
2023-03-29T05:38:27.868Z,99.99
2023-03-29T05:39:27.828Z,99.99
2023-03-29T05:40:27.831Z,99.99
2023-03-29T05:41:27.779Z,99.99
2023-03-29T05:42:27.863Z,99.99
2023-03-29T05:43:27.780Z,99.99
2023-03-29T05:44:27.741Z,99.99
2023-03-29T05:45:27.773Z,99.99
2023-03-29T05:46:27.853Z,99.99
2023-03-29T05:47:27.749Z,99.99
2023-03-29T05:48:27.701Z,99.99
2023-03-29T05:49:27.695Z,99.99
2023-03-29T05:50:27.695Z,99.99
2023-03-29T05:51:27.650Z,99.99
2023-03-29T05:52:27.712Z,99.99
2023-03-29T05:53:27.619Z,99.99
2023-03-29T05:54:27.623Z,99.99
2023-03-29T05:55:27.620Z,99.99
2023-03-29T05:56:27.637Z,99.99
2023-03-29T05:57:27.633Z,99.99
2023-03-29T05:58:27.622Z,99.99
2023-03-29T05:59:27.571Z,99.99
2023-03-29T06:00:27.605Z,99.99
2023-03-29T06:01:27.596Z,99.99
2023-03-29T06:02:27.649Z,99.99
2023-03-29T06:03:27.804Z,99.99
2023-03-29T06:04:27.662Z,99.99
2023-03-29T06:05:27.488Z,99.99
2023-03-29T06:06:27.488Z,99.99
2023-03-29T06:07:27.470Z,99.99
2023-03-29T06:08:27.533Z,99.99
2023-03-29T06:09:27.461Z,99.99
2023-03-29T06:10:27.469Z,99.99
2023-03-29T06:11:27.429Z,99.99
2023-03-29T06:12:27.546Z,99.99
2023-03-29T06:13:27.436Z,99.99
2023-03-29T06:14:27.422Z,99.99
2023-03-29T06:15:27.381Z,99.99
2023-03-29T06:16:27.429Z,99.99
2023-03-29T06:17:27.386Z,99.99
2023-03-29T06:18:27.352Z,99.99
2023-03-29T06:19:27.367Z,99.99
2023-03-29T06:20:27.521Z,99.99
2023-03-29T06:21:27.327Z,99.99
2023-03-29T06:22:27.289Z,99.99
2023-03-29T06:23:27.379Z,99.99
2023-03-29T06:24:27.267Z,99.99
2023-03-29T06:25:27.321Z,99.99
2023-03-29T06:26:27.235Z,99.90
2023-03-29T06:27:27.249Z,99.99
2023-03-29T06:28:27.253Z,99.99
2023-03-29T06:29:27.250Z,99.99
2023-03-29T06:30:27.230Z,99.99
2023-03-29T06:31:27.232Z,99.85
2023-03-29T06:32:27.218Z,99.43
2023-03-29T06:33:27.151Z,98.92
2023-03-29T06:34:27.159Z,99.33
2023-03-29T06:35:27.178Z,99.23
2023-03-29T06:36:27.112Z,99.02
2023-03-29T06:37:27.092Z,98.61
2023-03-29T06:38:27.164Z,98.82
2023-03-29T06:39:27.096Z,98.82
2023-03-29T06:40:27.087Z,98.30
2023-03-29T06:41:27.070Z,98.30
2023-03-29T06:42:27.050Z,98.20
2023-03-29T06:43:27.023Z,98.05
2023-03-29T06:44:27.120Z,98.15
2023-03-29T06:45:29.256Z,98.05
2023-03-29T06:46:27.058Z,98.36
2023-03-29T06:47:26.972Z,98.05
2023-03-29T06:48:26.966Z,97.95
2023-03-29T06:49:27.083Z,98.15
2023-03-29T06:50:26.982Z,97.95
2023-03-29T06:51:26.927Z,97.23
2023-03-29T06:52:26.932Z,97.64
2023-03-29T06:53:27.019Z,97.64
2023-03-29T06:54:26.944Z,97.53
2023-03-29T06:55:26.907Z,97.53
2023-03-29T06:56:26.921Z,97.49
2023-03-29T06:57:26.908Z,97.28
2023-03-29T06:58:26.958Z,97.28
2023-03-29T06:59:26.896Z,97.39
2023-03-29T07:00:26.827Z,97.18
2023-03-29T07:01:27.114Z,96.97
2023-03-29T07:02:26.940Z,96.15
2023-03-29T07:03:26.787Z,95.64
2023-03-29T07:04:26.807Z,95.95
2023-03-29T07:05:26.771Z,96.15
2023-03-29T07:06:26.753Z,95.53
2023-03-29T07:07:26.713Z,95.53
2023-03-29T07:08:26.742Z,95.90
2023-03-29T07:09:26.678Z,95.90
2023-03-29T07:10:26.677Z,96.11
2023-03-29T07:11:26.704Z,95.39
2023-03-29T07:12:26.759Z,94.87
2023-03-29T07:13:26.695Z,94.56
2023-03-29T07:14:26.717Z,94.15
2023-03-29T07:15:26.875Z,94.15
2023-03-29T07:16:26.891Z,94.15
2023-03-29T07:17:26.724Z,93.43
2023-03-29T07:18:26.632Z,93.64
2023-03-29T07:19:26.586Z,93.84
2023-03-29T07:20:26.568Z,92.82
2023-03-29T07:21:26.551Z,93.33
2023-03-29T07:22:26.560Z,92.92
2023-03-29T07:23:26.522Z,92.92
2023-03-29T07:24:26.514Z,92.71
2023-03-29T07:25:26.512Z,92.71
2023-03-29T07:26:28.643Z,92.25
2023-03-29T07:27:26.540Z,91.53
2023-03-29T07:28:26.433Z,91.64
2023-03-29T07:29:26.439Z,91.74
2023-03-29T07:30:26.411Z,91.80
2023-03-29T07:31:26.459Z,91.29
2023-03-29T07:32:26.485Z,91.39
2023-03-29T07:33:26.620Z,90.88
2023-03-29T07:34:26.409Z,90.36
2023-03-29T07:35:26.398Z,90.67
2023-03-29T07:36:26.362Z,90.22
2023-03-29T07:37:26.330Z,90.36
2023-03-29T07:38:26.369Z,89.44
2023-03-29T07:39:26.306Z,89.75
2023-03-29T07:40:26.525Z,89.44
2023-03-29T07:41:26.305Z,89.81
2023-03-29T07:42:26.268Z,89.50
2023-03-29T07:43:26.238Z,89.81
2023-03-29T07:44:26.220Z,89.50
2023-03-29T07:45:28.258Z,89.81
2023-03-29T07:46:26.423Z,89.50
2023-03-29T07:47:26.251Z,89.19
2023-03-29T07:48:26.247Z,89.19
2023-03-29T07:49:26.184Z,89.81
2023-03-29T07:50:26.159Z,89.70
2023-03-29T07:51:26.160Z,89.50
2023-03-29T07:52:26.155Z,88.98
2023-03-29T07:53:26.193Z,88.68
2023-03-29T07:54:26.093Z,88.17
2023-03-29T07:55:26.073Z,88.06
2023-03-29T07:56:26.074Z,88.57
2023-03-29T07:57:26.191Z,88.84
2023-03-29T07:58:26.089Z,88.84
2023-03-29T07:59:26.047Z,88.74
2023-03-29T08:00:26.040Z,88.02
2023-03-29T08:01:26.179Z,88.53
2023-03-29T08:02:26.066Z,87.61
2023-03-29T08:03:25.982Z,87.77
2023-03-29T08:04:26.142Z,88.08
2023-03-29T08:05:39.991Z,88.08
2023-03-29T08:06:26.957Z,88.49
2023-03-29T08:07:25.900Z,87.88
2023-03-29T08:08:25.904Z,87.46
2023-03-29T08:09:25.890Z,87.37
2023-03-29T08:10:26.231Z,87.53
2023-03-29T08:11:25.974Z,87.43
2023-03-29T08:12:25.834Z,87.22
2023-03-29T08:13:25.885Z,87.02
2023-03-29T08:14:25.839Z,86.19
2023-03-29T08:15:25.922Z,86.19
2023-03-29T08:16:25.848Z,86.09
2023-03-29T08:17:25.860Z,86.40
2023-03-29T08:18:25.779Z,85.99
2023-03-29T08:19:25.735Z,86.87
2023-03-29T08:20:25.749Z,86.71
2023-03-29T08:21:25.730Z,86.66
2023-03-29T08:22:25.729Z,85.78
2023-03-29T08:23:25.733Z,86.40
2023-03-29T08:24:25.698Z,87.02
2023-03-29T08:25:25.665Z,85.74
2023-03-29T08:26:25.689Z,86.81
2023-03-29T08:27:25.635Z,86.57
2023-03-29T08:28:25.702Z,87.38
2023-03-29T08:29:25.674Z,87.73
2023-03-29T08:30:25.657Z,89.58
2023-03-29T08:31:25.585Z,91.37
2023-03-29T08:32:25.650Z,92.85
2023-03-29T08:33:25.647Z,93.46
2023-03-29T08:34:25.562Z,94.49
2023-03-29T08:35:25.689Z,95.36
2023-03-29T08:36:25.627Z,95.87
2023-03-29T08:37:25.559Z,96.69
2023-03-29T08:38:25.544Z,97.41
2023-03-29T08:39:25.589Z,97.66
2023-03-29T08:40:25.501Z,98.18
2023-03-29T08:41:25.481Z,98.38
2023-03-29T08:42:25.615Z,98.02
2023-03-29T08:43:25.614Z,98.33
2023-03-29T08:44:25.440Z,98.53
2023-03-29T08:45:25.569Z,98.53
2023-03-29T08:46:27.503Z,98.84
2023-03-29T08:47:26.409Z,99.00
2023-03-29T08:48:26.360Z,98.79
2023-03-29T08:49:25.414Z,98.59
2023-03-29T08:50:25.344Z,98.38
2023-03-29T08:51:25.301Z,98.59
2023-03-29T08:52:25.278Z,98.69
2023-03-29T08:53:25.432Z,98.85
2023-03-29T08:54:25.327Z,98.03
2023-03-29T08:55:25.365Z,97.20
2023-03-29T08:56:25.239Z,96.80
2023-03-29T08:57:25.238Z,97.06
2023-03-29T08:58:25.199Z,96.75
2023-03-29T08:59:25.215Z,94.80
2023-03-29T09:00:25.205Z,94.39
2023-03-29T09:01:25.248Z,94.34
2023-03-29T09:02:25.227Z,94.24
2023-03-29T09:03:25.233Z,94.40
2023-03-29T09:04:25.230Z,94.92
2023-03-29T09:05:25.120Z,93.23
2023-03-29T09:11:03.308Z,90.11
2023-03-29T09:12:09.425Z,90.32
2023-03-29T09:13:01.954Z,90.52
2023-03-29T09:14:01.885Z,89.56
2023-03-29T09:15:01.874Z,89.36
2023-03-29T09:16:01.877Z,90.07
2023-03-29T09:17:01.916Z,89.36
2023-03-29T09:18:01.918Z,89.56
2023-03-29T09:19:01.836Z,89.76
2023-03-29T09:20:01.833Z,87.92
2023-03-29T09:21:01.911Z,88.33
2023-03-29T09:22:01.810Z,88.02
2023-03-29T09:23:01.782Z,89.21
2023-03-29T09:24:01.809Z,89.83
2023-03-29T09:25:02.625Z,87.57
2023-03-29T09:26:01.752Z,87.88
2023-03-29T09:27:01.849Z,87.88
2023-03-29T09:28:01.742Z,87.67
2023-03-29T09:29:01.800Z,88.14
2023-03-29T09:30:01.698Z,88.65
2023-03-29T09:31:01.827Z,87.53
2023-03-29T09:32:01.642Z,87.29
2023-03-29T09:33:01.639Z,87.29
2023-03-29T09:34:01.594Z,86.36
2023-03-29T09:35:01.603Z,86.94
2023-03-29T09:36:01.633Z,87.45
2023-03-29T09:37:01.587Z,86.02
2023-03-29T09:38:01.662Z,85.20
2023-03-29T09:39:01.502Z,85.47
2023-03-29T09:40:03.829Z,87.00
2023-03-29T09:41:01.853Z,86.55
2023-03-29T09:42:01.570Z,85.32
2023-03-29T09:43:01.575Z,84.44
2023-03-29T09:44:01.529Z,84.38
2023-03-29T09:45:01.470Z,85.10
2023-03-29T09:46:01.535Z,84.58
2023-03-29T09:47:01.463Z,84.99
2023-03-29T09:48:01.455Z,85.20
2023-03-29T09:49:01.500Z,85.61
2023-03-29T09:50:01.391Z,85.36
2023-03-29T09:51:01.566Z,85.36
2023-03-29T09:52:01.437Z,85.06
2023-03-29T09:53:01.374Z,85.36
2023-03-29T09:54:01.337Z,84.24
2023-03-29T09:55:01.374Z,84.75
2023-03-29T09:56:01.345Z,84.69
2023-03-29T09:57:01.389Z,84.48
2023-03-29T09:58:01.373Z,85.50
2023-03-29T09:59:01.267Z,84.85
2023-03-29T10:00:01.230Z,85.06
2023-03-29T10:01:01.694Z,86.18
2023-03-29T10:02:01.262Z,85.12
2023-03-29T10:03:01.312Z,84.71
2023-03-29T10:04:01.269Z,82.77
2023-03-29T10:05:01.401Z,83.38
2023-03-29T10:06:01.202Z,83.59
2023-03-29T10:07:01.155Z,82.97
2023-03-29T10:08:01.190Z,83.11
2023-03-29T10:09:01.163Z,84.00
2023-03-29T10:10:01.123Z,83.38
2023-03-29T10:11:01.255Z,82.63
2023-03-29T10:12:01.100Z,83.75
2023-03-29T10:13:01.082Z,83.61
2023-03-29T10:14:01.139Z,82.75
2023-03-29T10:15:01.051Z,81.84
2023-03-29T10:16:01.070Z,80.88
2023-03-29T10:17:01.103Z,79.25
2023-03-29T10:18:01.160Z,79.86
2023-03-29T10:19:01.031Z,81.04
2023-03-29T10:20:03.762Z,81.01
2023-03-29T10:21:01.205Z,78.42
2023-03-29T10:22:01.067Z,77.30
2023-03-29T10:23:00.994Z,77.75
2023-03-29T10:24:01.011Z,77.40
2023-03-29T10:25:00.994Z,77.61
2023-03-29T10:26:01.006Z,77.47
2023-03-29T10:27:00.946Z,77.33
2023-03-29T10:28:00.882Z,76.72
2023-03-29T10:29:00.862Z,75.43
2023-03-29T10:30:00.924Z,75.84
2023-03-29T10:31:01.152Z,75.30
2023-03-29T10:32:00.982Z,75.30
2023-03-29T10:33:00.833Z,74.79
2023-03-29T10:34:00.871Z,74.99
2023-03-29T10:35:00.772Z,76.18
2023-03-29T10:36:00.911Z,77.16
2023-03-29T10:37:00.725Z,75.23
2023-03-29T10:38:00.744Z,74.62
2023-03-29T10:39:02.792Z,74.11
2023-03-29T10:40:00.831Z,74.31
2023-03-29T10:41:00.782Z,74.41
2023-03-29T10:42:00.939Z,76.72
2023-03-29T10:43:00.659Z,74.92
2023-03-29T10:44:00.672Z,75.63
2023-03-29T10:45:00.766Z,76.41
2023-03-29T10:46:00.778Z,73.97
2023-03-29T10:47:00.847Z,75.23
2023-03-29T10:48:00.625Z,74.31
2023-03-29T10:49:00.593Z,75.16
2023-03-29T10:50:00.569Z,74.99
2023-03-29T10:51:00.944Z,75.43
2023-03-29T10:52:00.578Z,75.64
2023-03-29T10:53:00.611Z,76.96
2023-03-29T10:54:00.733Z,77.06
2023-03-29T10:55:00.724Z,76.76
2023-03-29T10:56:00.534Z,77.26
2023-03-29T10:57:00.676Z,77.37
2023-03-29T10:58:00.550Z,77.13
2023-03-29T10:59:00.585Z,76.62
2023-03-29T11:00:00.628Z,76.11
2023-03-29T11:01:00.882Z,75.77
2023-03-29T11:02:00.481Z,74.85
2023-03-29T11:03:00.567Z,75.46
2023-03-29T11:04:00.606Z,75.87
2023-03-29T11:05:00.372Z,75.26
2023-03-29T11:06:00.515Z,74.55
2023-03-29T11:07:00.481Z,76.38
2023-03-29T11:08:00.521Z,76.55
2023-03-29T11:09:00.375Z,76.25
2023-03-29T11:10:00.330Z,76.14
2023-03-29T11:11:00.705Z,76.31
2023-03-29T11:12:14.320Z,75.09
2023-03-29T11:13:01.316Z,76.28
2023-03-29T11:14:00.447Z,75.36
2023-03-29T11:15:00.347Z,75.32
2023-03-29T11:16:00.271Z,73.94
2023-03-29T11:17:00.197Z,74.41
2023-03-29T11:18:00.297Z,74.41
2023-03-29T11:19:00.381Z,73.39
2023-03-29T11:20:02.444Z,74.44
2023-03-29T11:21:00.483Z,74.34
2023-03-29T11:22:00.479Z,73.97
2023-03-29T11:23:00.232Z,74.85
2023-03-29T11:24:00.206Z,74.34
2023-03-29T11:25:00.171Z,74.85
2023-03-29T11:26:00.131Z,73.63
2023-03-29T11:27:00.389Z,74.92
2023-03-29T11:28:00.131Z,74.92
2023-03-29T11:29:00.259Z,74.78
2023-03-29T11:30:00.165Z,73.57
2023-03-29T11:31:00.302Z,73.57
2023-03-29T11:32:00.317Z,73.63
2023-03-29T11:33:00.136Z,74.30
2023-03-29T11:34:00.080Z,72.24
2023-03-29T11:35:00.151Z,72.08
2023-03-29T11:36:00.200Z,72.58
2023-03-29T11:37:00.147Z,71.97
2023-03-29T11:38:00.027Z,71.57
2023-03-29T11:39:00.128Z,72.78
2023-03-29T11:40:00.394Z,72.31
2023-03-29T11:41:00.050Z,73.87
2023-03-29T11:41:59.869Z,72.99
2023-03-29T11:42:59.987Z,73.74
2023-03-29T11:43:59.842Z,74.04
2023-03-29T11:44:59.869Z,74.38
2023-03-29T11:46:00.118Z,75.19
2023-03-29T11:46:59.934Z,75.16
2023-03-29T11:48:00.095Z,74.85
2023-03-29T11:48:59.852Z,75.26
2023-03-29T11:49:59.815Z,73.80
2023-03-29T11:50:59.835Z,73.50
2023-03-29T11:51:59.926Z,73.57
2023-03-29T11:52:59.804Z,74.21
2023-03-29T11:53:59.978Z,73.09
2023-03-29T11:54:59.727Z,74.48
2023-03-29T11:55:59.773Z,72.55
2023-03-29T11:56:59.742Z,71.53
2023-03-29T11:57:59.660Z,73.60
2023-03-29T11:58:59.679Z,72.38
2023-03-29T11:59:59.634Z,72.58
2023-03-29T12:00:59.741Z,71.77
2023-03-29T12:01:59.740Z,72.89
2023-03-29T12:02:59.663Z,72.78
2023-03-29T12:03:59.635Z,73.19
2023-03-29T12:04:59.608Z,72.34
2023-03-29T12:05:59.542Z,75.29
2023-03-29T12:06:59.561Z,74.01
2023-03-29T12:07:59.548Z,74.62
2023-03-29T12:08:59.570Z,74.41
2023-03-29T12:09:59.514Z,74.41
2023-03-29T12:10:59.500Z,74.48
2023-03-29T12:11:59.446Z,74.71
2023-03-29T12:12:59.470Z,74.51
2023-03-29T12:13:59.454Z,74.62
2023-03-29T12:14:59.465Z,74.21
2023-03-29T12:15:59.473Z,74.48
2023-03-29T12:16:59.636Z,74.68
2023-03-29T12:17:59.502Z,74.27
2023-03-29T12:18:59.444Z,75.43
2023-03-29T12:19:59.426Z,74.38
2023-03-29T12:20:59.933Z,75.49
2023-03-29T12:21:59.336Z,74.74
2023-03-29T12:22:59.355Z,75.19
2023-03-29T12:23:59.281Z,73.97
2023-03-29T12:24:59.406Z,76.14
2023-03-29T12:25:59.305Z,75.90
2023-03-29T12:26:59.345Z,74.78
2023-03-29T12:27:59.281Z,76.10
2023-03-29T12:28:59.301Z,77.62
2023-03-29T12:29:59.223Z,75.90
2023-03-29T12:30:59.227Z,76.20
2023-03-29T12:31:59.292Z,75.49
2023-03-29T12:33:00.007Z,75.79
2023-03-29T12:33:59.183Z,76.91
2023-03-29T12:34:59.139Z,75.59
2023-03-29T12:35:59.202Z,75.79
2023-03-29T12:36:59.203Z,75.83
2023-03-29T12:37:59.119Z,76.95
2023-03-29T12:38:59.189Z,76.24
2023-03-29T12:39:59.172Z,76.00
2023-03-29T12:40:59.109Z,75.79
2023-03-29T12:41:59.101Z,76.31
2023-03-29T12:42:59.057Z,77.42
2023-03-29T12:43:59.043Z,75.66
2023-03-29T12:44:59.065Z,75.09
2023-03-29T12:45:59.090Z,75.59
2023-03-29T12:46:59.165Z,76.40
2023-03-29T12:47:59.134Z,75.79
2023-03-29T12:48:58.998Z,76.51
2023-03-29T12:49:58.976Z,76.40
2023-03-29T12:50:59.082Z,77.08
2023-03-29T12:51:58.917Z,77.69
2023-03-29T12:52:59.027Z,76.67
2023-03-29T12:53:58.936Z,75.15
2023-03-29T12:54:58.871Z,75.66
2023-03-29T12:55:58.891Z,74.81
2023-03-29T12:56:58.947Z,74.91